Time,TemperatureF,DewpointF,PressureIn,WindDirection,WindDirectionDegrees,WindSpeedMPH,WindSpeedGustMPH,Humidity,HourlyPrecipIn,Conditions,Clouds,dailyrainin,SoftwareType,DateUTC
2014-02-13 00:01:00,17.9,15.7,30.16,SSW,195,0.0,0.0,91,0.00,CLR,,0.00,WeatherDisplay:10.37,2014-02-13 05:01:00,
2014-02-13 00:06:00,18.0,15.8,30.16,SSW,195,1.1,1.1,91,0.00,CLR,,0.00,WeatherDisplay:10.37,2014-02-13 05:06:00,
2014-02-13 00:11:00,17.8,15.6,30.16,SSW,195,0.0,0.0,91,0.00,CLR,,0.00,WeatherDisplay:10.37,2014-02-13 05:11:00,
2014-02-13 00:16:00,17.8,15.6,30.16,SSW,196,0.0,0.0,91,0.00,CLR,,0.00,WeatherDisplay:10.37,2014-02-13 05:16:00,
2014-02-13 00:21:00,17.8,15.6,30.15,SSW,195,0.0,0.0,91,0.00,CLR,,0.00,WeatherDisplay:10.37,2014-02-13 05:21:00,
2014-02-13 00:26:00,17.8,15.6,30.15,SSW,195,2.3,2.3,91,0.00,CLR,,0.00,WeatherDisplay:10.37,2014-02-13 05:26:00,
2014-02-13 00:31:00,17.8,15.6,30.15,SSW,195,1.1,0.0,91,0.00,CLR,,0.00,WeatherDisplay:10.37,2014-02-13 05:31:00,
2014-02-13 00:36:00,17.7,15.5,30.14,WSW,251,0.0,0.0,91,0.00,CLR,,0.00,WeatherDisplay:10.37,2014-02-13 05:36:00,
2014-02-13 00:41:00,17.7,15.5,30.14,WSW,251,0.0,0.0,91,0.00,CLR,,0.00,WeatherDisplay:10.37,2014-02-13 05:41:00,
2014-02-13 00:46:00,17.6,15.4,30.12,WSW,251,0.0,0.0,91,0.00,CLR,,0.00,WeatherDisplay:10.37,2014-02-13 05:46:00,
2014-02-13 00:51:00,17.6,15.4,30.12,WSW,251,0.0,0.0,91,0.00,CLR,,0.00,WeatherDisplay:10.37,2014-02-13 05:51:00,
2014-02-13 00:56:00,17.6,15.4,30.12,WSW,253,1.1,1.1,91,0.00,CLR,,0.00,WeatherDisplay:10.37,2014-02-13 05:56:00,
2014-02-13 01:01:00,17.5,15.1,30.11,WSW,254,0.0,0.0,90,0.00,CLR,,0.00,WeatherDisplay:10.37,2014-02-13 06:01:00,
2014-02-13 01:06:00,17.5,15.3,30.11,WSW,253,0.0,0.0,91,0.00,CLR,,0.00,WeatherDisplay:10.37,2014-02-13 06:06:00,
2014-02-13 01:11:00,17.5,15.3,30.12,WSW,253,1.1,1.1,91,0.00,CLR,,0.00,WeatherDisplay:10.37,2014-02-13 06:11:00,
2014-02-13 01:16:00,17.4,15.2,30.10,WSW,254,0.0,0.0,91,0.00,CLR,,0.00,WeatherDisplay:10.37,2014-02-13 06:16:00,
2014-02-13 01:21:00,17.5,15.3,30.10,WSW,253,0.0,0.0,91,0.00,CLR,,0.00,WeatherDisplay:10.37,2014-02-13 06:21:00,
2014-02-13 01:26:00,17.5,15.3,30.10,WSW,253,1.1,1.1,91,0.00,CLR,,0.00,WeatherDisplay:10.37,2014-02-13 06:26:00,
2014-02-13 01:31:00,17.4,15.2,30.09,WSW,254,0.0,0.0,91,0.00,CLR,,0.00,WeatherDisplay:10.37,2014-02-13 06:31:00,
2014-02-13 01:36:00,17.4,15.2,30.08,WSW,253,0.0,0.0,91,0.00,CLR,,0.00,WeatherDisplay:10.37,2014-02-13 06:36:00,
2014-02-13 01:41:00,17.3,15.1,30.08,WSW,254,1.1,1.1,91,0.00,CLR,,0.00,WeatherDisplay:10.37,2014-02-13 06:41:00,
2014-02-13 01:46:00,17.3,15.1,30.08,WSW,253,0.0,0.0,91,0.00,CLR,,0.00,WeatherDisplay:10.37,2014-02-13 06:46:00,
2014-02-13 01:51:00,17.3,15.1,30.07,WSW,254,0.0,0.0,91,0.00,CLR,,0.00,WeatherDisplay:10.37,2014-02-13 06:51:00,
2014-02-13 01:56:00,17.3,15.1,30.06,WSW,253,0.0,0.0,91,0.00,CLR,,0.00,WeatherDisplay:10.37,2014-02-13 06:56:00,
2014-02-13 02:01:00,17.3,15.1,30.05,WSW,253,0.0,0.0,91,0.00,CLR,,0.00,WeatherDisplay:10.37,2014-02-13 07:01:00,
2014-02-13 02:06:00,17.3,15.1,30.04,WSW,254,0.0,0.0,91,0.00,CLR,,0.00,WeatherDisplay:10.37,2014-02-13 07:06:00,
2014-02-13 02:11:00,17.2,15.0,30.04,WSW,254,1.1,1.1,91,0.00,CLR,,0.00,WeatherDisplay:10.37,2014-02-13 07:11:00,
2014-02-13 02:16:00,17.2,15.0,30.02,WSW,253,0.0,0.0,91,0.00,CLR,,0.00,WeatherDisplay:10.37,2014-02-13 07:16:00,
2014-02-13 02:21:00,17.2,15.0,30.02,WSW,253,0.0,0.0,91,0.00,CLR,,0.00,WeatherDisplay:10.37,2014-02-13 07:21:00,
2014-02-13 02:26:00,17.2,15.0,30.01,WSW,253,0.0,0.0,91,0.00,CLR,,0.00,WeatherDisplay:10.37,2014-02-13 07:26:00,
2014-02-13 02:31:00,17.1,14.9,30.01,WSW,254,0.0,0.0,91,0.00,CLR,,0.00,WeatherDisplay:10.37,2014-02-13 07:31:00,
2014-02-13 02:36:00,17.1,14.9,30.01,WSW,253,2.3,2.3,91,0.00,CLR,,0.00,WeatherDisplay:10.37,2014-02-13 07:36:00,
2014-02-13 02:41:00,17.1,14.9,30.01,WSW,253,3.0,3.0,91,0.00,CLR,,0.00,WeatherDisplay:10.37,2014-02-13 07:41:00,
2014-02-13 02:46:00,17.1,14.7,30.00,WSW,253,2.3,2.3,90,0.00,CLR,,0.00,WeatherDisplay:10.37,2014-02-13 07:46:00,
2014-02-13 02:51:00,17.1,14.9,30.02,SW,234,3.5,3.5,91,0.00,CLR,,0.00,WeatherDisplay:10.37,2014-02-13 07:51:00,
2014-02-13 02:56:00,17.1,14.9,30.00,SW,234,2.3,2.3,91,0.00,CLR,,0.00,WeatherDisplay:10.37,2014-02-13 07:56:00,
2014-02-13 03:01:00,17.0,14.8,30.00,WNW,283,2.3,2.3,91,0.00,CLR,,0.00,WeatherDisplay:10.37,2014-02-13 08:01:00,
2014-02-13 03:06:00,17.0,14.8,30.00,WNW,283,0.0,0.0,91,0.00,CLR,,0.00,WeatherDisplay:10.37,2014-02-13 08:06:00,
2014-02-13 03:11:00,17.1,14.9,29.99,WNW,283,0.0,0.0,91,0.00,CLR,,0.00,WeatherDisplay:10.37,2014-02-13 08:11:00,
2014-02-13 03:16:00,17.1,14.9,29.99,North,360,2.3,2.3,91,0.00,CLR,,0.00,WeatherDisplay:10.37,2014-02-13 08:16:00,
2014-02-13 03:21:00,17.1,14.9,29.99,NW,308,1.1,1.1,91,0.00,CLR,,0.00,WeatherDisplay:10.37,2014-02-13 08:21:00,
2014-02-13 03:26:00,17.1,14.9,29.99,NNW,346,1.1,1.1,91,0.00,CLR,,0.00,WeatherDisplay:10.37,2014-02-13 08:26:00,
2014-02-13 03:31:00,17.1,14.9,29.99,NE,34,2.0,2.0,91,0.00,CLR,,0.00,WeatherDisplay:10.37,2014-02-13 08:31:00,
2014-02-13 03:36:00,17.1,14.9,29.97,NNW,330,2.3,2.3,91,0.00,CLR,,0.00,WeatherDisplay:10.37,2014-02-13 08:36:00,
2014-02-13 03:41:00,17.1,14.9,29.96,NNW,330,1.1,1.1,91,0.00,CLR,,0.00,WeatherDisplay:10.37,2014-02-13 08:41:00,
2014-02-13 03:46:00,17.1,14.9,29.97,North,351,1.1,1.1,91,0.00,CLR,,0.00,WeatherDisplay:10.37,2014-02-13 08:46:00,
2014-02-13 03:52:00,17.1,14.9,29.96,North,351,0.0,0.0,91,0.00,CLR,,0.00,WeatherDisplay:10.37,2014-02-13 08:52:00,
2014-02-13 03:57:00,17.1,14.9,29.96,WNW,298,0.0,0.0,91,0.00,CLR,,0.00,WeatherDisplay:10.37,2014-02-13 08:57:00,
2014-02-13 04:02:00,17.1,14.9,29.96,North,5,3.5,3.5,91,0.00,CLR,,0.00,WeatherDisplay:10.37,2014-02-13 09:02:00,
2014-02-13 04:07:00,17.1,14.9,29.95,North,5,0.0,0.0,91,0.00,CLR,,0.00,WeatherDisplay:10.37,2014-02-13 09:07:00,
2014-02-13 04:12:00,17.1,14.9,29.95,North,5,0.0,0.0,91,0.00,CLR,,0.00,WeatherDisplay:10.37,2014-02-13 09:12:00,
2014-02-13 04:17:00,17.1,14.9,29.95,North,5,0.0,0.0,91,0.00,CLR,,0.00,WeatherDisplay:10.37,2014-02-13 09:17:00,
2014-02-13 04:22:00,17.1,14.9,29.95,North,5,1.1,1.1,91,0.00,CLR,,0.00,WeatherDisplay:10.37,2014-02-13 09:22:00,
2014-02-13 04:27:00,17.1,14.9,29.95,North,5,0.0,0.0,91,0.00,CLR,,0.00,WeatherDisplay:10.37,2014-02-13 09:27:00,
2014-02-13 04:32:00,17.1,14.9,29.94,North,5,2.0,2.0,91,0.00,CLR,,0.00,WeatherDisplay:10.37,2014-02-13 09:32:00,
2014-02-13 04:37:00,17.1,14.9,29.94,SSW,201,2.3,0.0,91,0.00,CLR,,0.00,WeatherDisplay:10.37,2014-02-13 09:37:00,
2014-02-13 04:42:00,17.1,14.9,29.94,SSW,201,2.3,2.3,91,0.00,CLR,,0.00,WeatherDisplay:10.37,2014-02-13 09:42:00,
2014-02-13 04:47:00,17.1,14.9,29.94,SSW,202,2.3,2.3,91,0.00,CLR,,0.00,WeatherDisplay:10.37,2014-02-13 09:47:00,
2014-02-13 04:52:00,17.1,14.9,29.93,SSW,202,3.5,3.5,91,0.00,CLR,,0.00,WeatherDisplay:10.37,2014-02-13 09:52:00,
2014-02-13 04:57:00,17.2,15.0,29.92,SSW,202,0.0,0.0,91,0.00,CLR,,0.00,WeatherDisplay:10.37,2014-02-13 09:57:00,
2014-02-13 05:02:00,17.2,15.0,29.92,SSW,202,1.0,1.0,91,0.00,CLR,,0.00,WeatherDisplay:10.37,2014-02-13 10:02:00,
2014-02-13 05:07:00,17.2,15.0,29.92,SSW,202,0.0,0.4,91,0.00,CLR,,0.00,WeatherDisplay:10.37,2014-02-13 10:07:00,
2014-02-13 05:12:00,17.2,15.0,29.92,SSW,202,1.1,1.1,91,0.00,CLR,,0.00,WeatherDisplay:10.37,2014-02-13 10:12:00,
2014-02-13 05:17:00,17.2,15.0,29.92,SSW,202,1.1,1.1,91,0.00,CLR,,0.00,WeatherDisplay:10.37,2014-02-13 10:17:00,
2014-02-13 05:22:00,17.2,15.0,29.92,SSW,202,1.1,0.0,91,0.00,CLR,,0.00,WeatherDisplay:10.37,2014-02-13 10:22:00,
2014-02-13 05:27:00,17.2,15.0,29.91,SSW,202,1.1,1.1,91,0.00,CLR,,0.00,WeatherDisplay:10.37,2014-02-13 10:27:00,
2014-02-13 05:32:00,17.2,15.0,29.91,SE,144,0.0,0.0,91,0.00,CLR,,0.00,WeatherDisplay:10.37,2014-02-13 10:32:00,
2014-02-13 05:37:00,17.2,15.0,29.90,SE,143,1.0,1.0,91,0.00,CLR,,0.00,WeatherDisplay:10.37,2014-02-13 10:37:00,
2014-02-13 05:42:00,17.3,15.1,29.90,SE,143,0.0,0.0,91,0.00,CLR,,0.00,WeatherDisplay:10.37,2014-02-13 10:42:00,
2014-02-13 05:47:00,17.3,15.1,29.90,SE,143,0.0,0.0,91,0.00,CLR,,0.00,WeatherDisplay:10.37,2014-02-13 10:47:00,
2014-02-13 05:52:00,17.3,15.1,29.89,SE,143,0.0,0.0,91,0.00,CLR,,0.00,WeatherDisplay:10.37,2014-02-13 10:52:00,
2014-02-13 05:57:00,17.2,15.0,29.89,SE,143,0.0,0.0,91,0.00,CLR,,0.00,WeatherDisplay:10.37,2014-02-13 10:57:00,
2014-02-13 06:02:00,17.2,15.0,29.89,SE,143,1.1,1.1,91,0.00,CLR,,0.00,WeatherDisplay:10.37,2014-02-13 11:02:00,
2014-02-13 06:07:00,17.3,15.1,29.89,SSE,148,2.3,2.3,91,0.00,CLR,,0.00,WeatherDisplay:10.37,2014-02-13 11:07:00,
2014-02-13 06:12:00,17.3,15.1,29.89,SSE,147,0.0,0.1,91,0.00,CLR,,0.00,WeatherDisplay:10.37,2014-02-13 11:12:00,
2014-02-13 06:17:00,17.3,14.9,29.88,SSE,148,1.1,1.1,90,0.00,CLR,,0.00,WeatherDisplay:10.37,2014-02-13 11:17:00,
2014-02-13 06:22:00,17.3,14.9,29.88,SSE,148,1.1,1.1,90,0.00,CLR,,0.00,WeatherDisplay:10.37,2014-02-13 11:22:00,
2014-02-13 06:27:00,17.3,14.9,29.88,SSE,167,2.3,2.3,90,0.00,CLR,,0.00,WeatherDisplay:10.37,2014-02-13 11:27:00,
2014-02-13 06:32:00,17.3,14.9,29.88,SSE,167,1.0,1.0,90,0.00,CLR,,0.00,WeatherDisplay:10.37,2014-02-13 11:32:00,
2014-02-13 06:37:00,17.3,14.9,29.87,SSW,194,0.0,0.0,90,0.00,CLR,,0.00,WeatherDisplay:10.37,2014-02-13 11:37:00,
2014-02-13 06:42:00,17.4,15.0,29.87,SSW,194,0.0,0.0,90,0.00,CLR,,0.00,WeatherDisplay:10.37,2014-02-13 11:42:00,
2014-02-13 06:47:00,17.4,15.0,29.87,SSW,194,1.1,1.1,90,0.00,CLR,,0.00,WeatherDisplay:10.37,2014-02-13 11:47:00,
2014-02-13 06:52:00,17.4,15.0,29.87,SW,217,3.5,3.5,90,0.00,CLR,,0.00,WeatherDisplay:10.37,2014-02-13 11:52:00,
2014-02-13 06:57:00,17.4,15.0,29.88,SW,217,2.0,2.0,90,0.00,CLR,,0.00,WeatherDisplay:10.37,2014-02-13 11:57:00,
2014-02-13 07:02:00,17.5,15.3,29.87,SW,217,0.0,0.0,91,0.00,CLR,,0.00,WeatherDisplay:10.37,2014-02-13 12:02:00,
2014-02-13 07:07:00,17.5,15.1,29.87,NE,44,3.0,3.0,90,0.00,CLR,,0.00,WeatherDisplay:10.37,2014-02-13 12:07:00,
2014-02-13 07:12:00,17.5,15.3,29.86,NNE,26,2.3,0.0,91,0.00,CLR,,0.00,WeatherDisplay:10.37,2014-02-13 12:12:00,
2014-02-13 07:17:00,17.6,15.4,29.85,NNE,26,1.0,1.0,91,0.00,CLR,,0.00,WeatherDisplay:10.37,2014-02-13 12:17:00,
2014-02-13 07:22:00,17.6,15.4,29.85,NNE,26,1.1,0.0,91,0.00,CLR,,0.00,WeatherDisplay:10.37,2014-02-13 12:22:00,
2014-02-13 07:27:00,17.6,15.4,29.85,NNE,26,0.0,0.0,91,0.00,CLR,,0.00,WeatherDisplay:10.37,2014-02-13 12:27:00,
2014-02-13 07:32:00,17.6,15.4,29.85,NNW,346,2.3,2.3,91,0.00,CLR,,0.00,WeatherDisplay:10.37,2014-02-13 12:32:00,
2014-02-13 07:37:00,17.7,15.5,29.84,NNE,30,3.5,3.5,91,0.00,CLR,,0.00,WeatherDisplay:10.37,2014-02-13 12:37:00,
2014-02-13 07:42:00,17.8,15.6,29.84,NNE,30,0.0,0.0,91,0.00,CLR,,0.00,WeatherDisplay:10.37,2014-02-13 12:42:00,
2014-02-13 07:47:00,17.8,15.6,29.84,NNW,333,3.5,3.5,91,0.00,CLR,,0.00,WeatherDisplay:10.37,2014-02-13 12:47:00,
2014-02-13 07:52:00,17.9,15.7,29.83,NNW,333,0.0,0.0,91,0.00,CLR,,0.00,WeatherDisplay:10.37,2014-02-13 12:52:00,
2014-02-13 07:57:00,18.0,15.8,29.84,NNW,333,0.0,0.0,91,0.00,CLR,,0.00,WeatherDisplay:10.37,2014-02-13 12:57:00,
2014-02-13 08:02:00,18.1,15.9,29.83,NNW,333,0.0,0.0,91,0.00,CLR,,0.00,WeatherDisplay:10.37,2014-02-13 13:02:00,
2014-02-13 08:07:00,18.2,16.0,29.83,NNW,333,1.1,1.1,91,0.00,CLR,,0.00,WeatherDisplay:10.37,2014-02-13 13:07:00,
2014-02-13 08:12:00,18.3,15.9,29.83,NNE,15,2.0,2.0,90,0.00,CLR,,0.00,WeatherDisplay:10.37,2014-02-13 13:12:00,
2014-02-13 08:17:00,18.3,15.9,29.82,NNE,17,0.0,0.0,90,0.00,CLR,,0.00,WeatherDisplay:10.37,2014-02-13 13:17:00,
2014-02-13 08:22:00,18.4,16.0,29.82,NNE,17,0.0,0.0,90,0.00,CLR,,0.00,WeatherDisplay:10.37,2014-02-13 13:22:00,
2014-02-13 08:27:00,18.6,16.2,29.82,NNE,17,0.0,0.0,90,0.00,CLR,,0.00,WeatherDisplay:10.37,2014-02-13 13:27:00,
2014-02-13 08:32:00,18.7,16.3,29.81,NNE,17,0.0,0.0,90,0.00,CLR,,0.00,WeatherDisplay:10.37,2014-02-13 13:32:00,
2014-02-13 08:37:00,18.9,16.5,29.81,NNE,17,0.0,0.0,90,0.00,CLR,,0.00,WeatherDisplay:10.37,2014-02-13 13:37:00,
2014-02-13 08:42:00,19.1,16.7,29.81,NNE,17,0.0,0.0,90,0.00,CLR,,0.00,WeatherDisplay:10.37,2014-02-13 13:42:00,
2014-02-13 08:47:00,19.3,16.6,29.80,NNE,17,0.0,0.0,89,0.00,CLR,,0.00,WeatherDisplay:10.37,2014-02-13 13:47:00,
2014-02-13 08:52:00,19.5,16.8,29.80,NNE,17,2.3,2.3,89,0.00,CLR,,0.00,WeatherDisplay:10.37,2014-02-13 13:52:00,
2014-02-13 08:57:00,19.8,17.1,29.80,NNE,17,1.1,1.1,89,0.00,CLR,,0.00,WeatherDisplay:10.37,2014-02-13 13:57:00,
2014-02-13 09:02:00,20.0,17.0,29.79,East,95,2.3,2.3,88,0.00,CLR,,0.00,WeatherDisplay:10.37,2014-02-13 14:02:00,
2014-02-13 09:07:00,20.0,17.0,29.79,ENE,73,3.5,3.5,88,0.00,CLR,,0.00,WeatherDisplay:10.37,2014-02-13 14:07:00,
2014-02-13 09:12:00,20.1,17.1,29.79,ENE,73,0.0,0.0,88,0.00,CLR,,0.00,WeatherDisplay:10.37,2014-02-13 14:12:00,
2014-02-13 09:17:00,20.2,17.2,29.78,WSW,257,3.5,3.5,88,0.00,CLR,,0.00,WeatherDisplay:10.37,2014-02-13 14:17:00,
2014-02-13 09:22:00,20.3,17.3,29.78,WSW,257,0.0,0.0,88,0.00,CLR,,0.00,WeatherDisplay:10.37,2014-02-13 14:22:00,
2014-02-13 09:27:00,20.5,17.2,29.77,SSW,205,2.3,2.3,87,0.00,CLR,,0.00,WeatherDisplay:10.37,2014-02-13 14:27:00,
2014-02-13 09:32:00,20.7,17.4,29.77,SSW,205,1.1,0.0,87,0.00,CLR,,0.00,WeatherDisplay:10.37,2014-02-13 14:32:00,
2014-02-13 09:37:00,21.0,17.7,29.77,SSW,197,3.5,3.5,87,0.00,CLR,,0.00,WeatherDisplay:10.37,2014-02-13 14:37:00,
2014-02-13 09:42:00,21.1,17.8,29.76,WNW,292,1.1,1.1,87,0.00,CLR,,0.00,WeatherDisplay:10.37,2014-02-13 14:42:00,
2014-02-13 09:47:00,21.3,18.0,29.76,SW,224,3.5,3.5,87,0.00,CLR,,0.00,WeatherDisplay:10.37,2014-02-13 14:47:00,
2014-02-13 09:52:00,21.4,18.1,29.76,WSW,250,2.3,2.3,87,0.00,CLR,,0.00,WeatherDisplay:10.37,2014-02-13 14:52:00,
2014-02-13 09:57:00,21.5,18.5,29.76,WSW,250,0.0,0.0,88,0.00,CLR,,0.00,WeatherDisplay:10.37,2014-02-13 14:57:00,
2014-02-13 10:02:00,21.5,18.5,29.76,WSW,250,0.0,0.0,88,0.00,CLR,,0.00,WeatherDisplay:10.37,2014-02-13 15:02:00,
2014-02-13 10:07:00,21.8,18.8,29.75,WSW,248,2.3,2.3,88,0.00,CLR,,0.00,WeatherDisplay:10.37,2014-02-13 15:07:00,
2014-02-13 10:12:00,22.3,19.3,29.75,WSW,248,0.0,0.0,88,0.00,CLR,,0.00,WeatherDisplay:10.37,2014-02-13 15:12:00,
2014-02-13 10:17:00,22.5,19.5,29.74,SW,217,1.1,1.1,88,0.00,CLR,,0.00,WeatherDisplay:10.37,2014-02-13 15:17:00,
2014-02-13 10:22:00,23.0,19.4,29.74,SW,217,0.0,0.0,86,0.00,CLR,,0.00,WeatherDisplay:10.37,2014-02-13 15:22:00,
2014-02-13 10:27:00,23.4,19.6,29.73,SE,142,0.0,0.0,85,0.00,CLR,,0.00,WeatherDisplay:10.37,2014-02-13 15:27:00,
2014-02-13 10:32:00,23.8,19.7,29.73,SE,142,0.0,0.0,84,0.00,CLR,,0.00,WeatherDisplay:10.37,2014-02-13 15:32:00,
2014-02-13 10:37:00,24.2,20.3,29.72,ENE,63,3.5,3.5,85,0.00,CLR,,0.00,WeatherDisplay:10.37,2014-02-13 15:37:00,
2014-02-13 10:42:00,24.4,20.3,29.72,SE,131,1.0,1.0,84,0.00,CLR,,0.00,WeatherDisplay:10.37,2014-02-13 15:42:00,
2014-02-13 10:47:00,24.5,20.1,29.72,SE,128,2.3,0.0,83,0.00,CLR,,0.00,WeatherDisplay:10.37,2014-02-13 15:47:00,
2014-02-13 10:52:00,24.9,20.2,29.72,SE,128,0.0,0.0,82,0.00,CLR,,0.00,WeatherDisplay:10.37,2014-02-13 15:52:00,
2014-02-13 10:57:00,25.2,20.2,29.71,SSE,166,2.3,2.3,81,0.00,CLR,,0.00,WeatherDisplay:10.37,2014-02-13 15:57:00,
2014-02-13 11:02:00,25.5,20.5,29.71,SSE,166,1.1,1.1,81,0.00,CLR,,0.00,WeatherDisplay:10.37,2014-02-13 16:02:00,
2014-02-13 11:07:00,25.6,20.6,29.71,SSW,194,4.0,4.0,81,0.00,CLR,,0.00,WeatherDisplay:10.37,2014-02-13 16:07:00,
2014-02-13 11:12:00,25.8,20.8,29.70,SW,231,2.3,2.3,81,0.00,CLR,,0.00,WeatherDisplay:10.37,2014-02-13 16:12:00,
2014-02-13 11:17:00,25.9,21.2,29.70,NNE,17,2.3,2.3,82,0.00,CLR,,0.00,WeatherDisplay:10.37,2014-02-13 16:17:00,
2014-02-13 11:22:00,25.9,20.9,29.70,North,5,0.0,0.0,81,0.00,CLR,,0.00,WeatherDisplay:10.37,2014-02-13 16:22:00,
2014-02-13 11:27:00,26.0,20.7,29.69,NE,36,2.3,2.3,80,0.00,CLR,,0.00,WeatherDisplay:10.37,2014-02-13 16:27:00,
2014-02-13 11:32:00,26.0,21.0,29.68,SE,129,2.3,2.3,81,0.00,CLR,,0.00,WeatherDisplay:10.37,2014-02-13 16:32:00,
2014-02-13 11:37:00,26.0,21.0,29.68,South,190,2.3,2.3,81,0.00,CLR,,0.00,WeatherDisplay:10.37,2014-02-13 16:37:00,
2014-02-13 11:42:00,26.2,21.2,29.67,South,190,2.3,2.3,81,0.00,CLR,,0.00,WeatherDisplay:10.37,2014-02-13 16:42:00,
2014-02-13 11:47:00,26.1,21.1,29.67,SE,130,2.3,2.3,81,0.00,CLR,,0.00,WeatherDisplay:10.37,2014-02-13 16:47:00,
2014-02-13 11:52:00,26.2,21.5,29.67,East,79,2.3,2.3,82,0.00,CLR,,0.00,WeatherDisplay:10.37,2014-02-13 16:52:00,
2014-02-13 11:57:00,26.3,21.6,29.66,ENE,78,0.0,0.1,82,0.00,CLR,,0.00,WeatherDisplay:10.37,2014-02-13 16:57:00,
2014-02-13 12:02:00,26.8,22.0,29.66,South,184,3.5,3.5,82,0.00,CLR,,0.00,WeatherDisplay:10.37,2014-02-13 17:02:00,
2014-02-13 12:07:00,27.3,22.2,29.65,South,184,1.1,0.0,81,0.00,CLR,,0.00,WeatherDisplay:10.37,2014-02-13 17:07:00,
2014-02-13 12:12:00,27.2,22.4,29.64,West,266,2.3,0.0,82,0.00,CLR,,0.00,WeatherDisplay:10.37,2014-02-13 17:12:00,
2014-02-13 12:17:00,27.0,22.5,29.64,West,266,2.0,2.0,83,0.00,CLR,,0.00,WeatherDisplay:10.37,2014-02-13 17:17:00,
2014-02-13 12:22:00,26.5,22.3,29.63,NNE,28,5.8,5.8,84,0.00,CLR,,0.00,WeatherDisplay:10.37,2014-02-13 17:22:00,
2014-02-13 12:27:00,26.3,22.1,29.62,NE,51,3.5,3.5,84,0.00,CLR,,0.00,WeatherDisplay:10.37,2014-02-13 17:27:00,
2014-02-13 12:32:00,26.4,22.5,29.61,SSW,200,1.1,0.0,85,0.00,CLR,,0.00,WeatherDisplay:10.37,2014-02-13 17:32:00,
2014-02-13 12:37:00,26.3,22.1,29.61,NNE,29,2.3,2.3,84,0.00,CLR,,0.00,WeatherDisplay:10.37,2014-02-13 17:37:00,
2014-02-13 12:42:00,26.6,22.4,29.61,NNE,29,0.0,0.0,84,0.00,CLR,,0.00,WeatherDisplay:10.37,2014-02-13 17:42:00,
2014-02-13 12:47:00,26.9,22.7,29.61,NNE,30,0.0,0.0,84,0.00,CLR,,0.00,WeatherDisplay:10.37,2014-02-13 17:47:00,
2014-02-13 12:52:00,27.1,22.9,29.60,NNE,30,0.0,0.0,84,0.00,CLR,,0.00,WeatherDisplay:10.37,2014-02-13 17:52:00,
2014-02-13 12:57:00,27.2,23.0,29.60,NNE,30,2.3,2.3,84,0.00,CLR,,0.00,WeatherDisplay:10.37,2014-02-13 17:57:00,
2014-02-13 13:02:00,27.2,23.0,29.60,NNE,30,2.3,2.3,84,0.00,CLR,,0.00,WeatherDisplay:10.37,2014-02-13 18:02:00,
2014-02-13 13:07:00,27.2,23.0,29.59,NW,325,2.0,2.0,84,0.00,CLR,,0.00,WeatherDisplay:10.37,2014-02-13 18:07:00,
2014-02-13 13:12:00,26.9,23.0,29.59,NW,325,0.0,0.0,85,0.00,CLR,,0.00,WeatherDisplay:10.37,2014-02-13 18:12:00,
2014-02-13 13:17:00,26.9,23.3,29.58,NW,325,0.0,0.1,86,0.00,CLR,,0.00,WeatherDisplay:10.37,2014-02-13 18:17:00,
2014-02-13 13:22:00,26.6,23.0,29.58,NW,325,2.3,2.3,86,0.00,CLR,,0.00,WeatherDisplay:10.37,2014-02-13 18:22:00,
2014-02-13 13:27:00,26.5,22.9,29.58,West,263,2.3,2.3,86,0.00,CLR,,0.00,WeatherDisplay:10.37,2014-02-13 18:27:00,
2014-02-13 13:32:00,26.4,23.1,29.58,SSW,203,2.3,2.3,87,0.00,CLR,,0.00,WeatherDisplay:10.37,2014-02-13 18:32:00,
2014-02-13 13:37:00,26.3,23.2,29.58,SSW,207,3.5,0.0,88,0.00,CLR,,0.00,WeatherDisplay:10.37,2014-02-13 18:37:00,
2014-02-13 13:42:00,26.3,23.2,29.58,SW,228,3.5,3.5,88,0.00,CLR,,0.00,WeatherDisplay:10.37,2014-02-13 18:42:00,
2014-02-13 13:47:00,26.2,23.4,29.58,WSW,240,3.5,3.5,89,0.00,CLR,,0.00,WeatherDisplay:10.37,2014-02-13 18:47:00,
2014-02-13 13:52:00,26.2,23.4,29.57,West,279,3.5,3.5,89,0.00,CLR,,0.00,WeatherDisplay:10.37,2014-02-13 18:52:00,
2014-02-13 13:57:00,26.2,23.4,29.57,West,279,0.0,0.0,89,0.00,CLR,,0.00,WeatherDisplay:10.37,2014-02-13 18:57:00,
2014-02-13 14:02:00,26.3,23.5,29.57,West,269,0.0,0.0,89,0.00,CLR,,0.00,WeatherDisplay:10.37,2014-02-13 19:02:00,
2014-02-13 14:07:00,26.3,23.8,29.57,West,259,1.1,1.1,90,0.00,CLR,,0.00,WeatherDisplay:10.37,2014-02-13 19:07:00,
2014-02-13 14:12:00,26.4,23.9,29.56,WSW,250,3.5,3.5,90,0.00,CLR,,0.00,WeatherDisplay:10.37,2014-02-13 19:12:00,
2014-02-13 14:17:00,26.4,23.9,29.56,WSW,250,2.3,2.3,90,0.00,CLR,,0.00,WeatherDisplay:10.37,2014-02-13 19:17:00,
2014-02-13 14:22:00,26.4,24.1,29.56,WSW,250,1.1,1.1,91,0.00,CLR,,0.00,WeatherDisplay:10.37,2014-02-13 19:22:00,
2014-02-13 14:27:00,26.4,24.1,29.55,WSW,250,2.3,2.3,91,0.00,CLR,,0.00,WeatherDisplay:10.37,2014-02-13 19:27:00,
2014-02-13 14:32:00,26.3,24.0,29.55,West,271,1.0,1.0,91,0.00,CLR,,0.00,WeatherDisplay:10.37,2014-02-13 19:32:00,
2014-02-13 14:37:00,26.4,24.1,29.55,West,271,0.0,0.0,91,0.00,CLR,,0.00,WeatherDisplay:10.37,2014-02-13 19:37:00,
2014-02-13 14:42:00,26.3,24.0,29.55,West,271,0.0,0.0,91,0.00,CLR,,0.00,WeatherDisplay:10.37,2014-02-13 19:42:00,
2014-02-13 14:47:00,26.5,24.2,29.55,West,271,0.0,0.0,91,0.00,CLR,,0.00,WeatherDisplay:10.37,2014-02-13 19:47:00,
2014-02-13 14:52:00,26.5,24.2,29.55,West,271,0.0,0.0,91,0.00,CLR,,0.00,WeatherDisplay:10.37,2014-02-13 19:52:00,
2014-02-13 14:57:00,26.5,24.2,29.54,West,271,0.0,0.0,91,0.00,CLR,,0.00,WeatherDisplay:10.37,2014-02-13 19:57:00,
2014-02-13 15:02:00,26.5,24.2,29.54,West,271,0.0,0.0,91,0.00,CLR,,0.00,WeatherDisplay:10.37,2014-02-13 20:02:00,
2014-02-13 15:07:00,26.6,24.3,29.54,West,271,0.0,0.0,91,0.00,CLR,,0.00,WeatherDisplay:10.37,2014-02-13 20:07:00,
2014-02-13 15:12:00,26.6,24.3,29.54,West,271,0.0,0.0,91,0.00,CLR,,0.00,WeatherDisplay:10.37,2014-02-13 20:12:00,
2014-02-13 15:17:00,26.6,24.6,29.54,West,271,0.0,0.0,92,0.00,CLR,,0.00,WeatherDisplay:10.37,2014-02-13 20:17:00,
2014-02-13 15:22:00,26.6,24.6,29.54,West,271,0.0,0.0,92,0.00,CLR,,0.00,WeatherDisplay:10.37,2014-02-13 20:22:00,
2014-02-13 15:27:00,26.6,24.6,29.54,West,271,0.0,0.0,92,0.00,CLR,,0.00,WeatherDisplay:10.37,2014-02-13 20:27:00,
2014-02-13 15:32:00,26.7,24.7,29.54,West,271,0.0,0.0,92,0.00,CLR,,0.00,WeatherDisplay:10.37,2014-02-13 20:32:00,
2014-02-13 15:37:00,26.7,24.7,29.54,West,271,0.0,0.0,92,0.00,CLR,,0.00,WeatherDisplay:10.37,2014-02-13 20:37:00,
2014-02-13 15:42:00,26.7,24.7,29.54,West,271,1.1,1.1,92,0.00,CLR,,0.00,WeatherDisplay:10.37,2014-02-13 20:42:00,
2014-02-13 15:47:00,26.7,24.7,29.54,West,271,0.0,0.0,92,0.00,CLR,,0.00,WeatherDisplay:10.37,2014-02-13 20:47:00,
2014-02-13 15:52:00,26.8,24.8,29.54,West,271,0.0,0.0,92,0.00,CLR,,0.00,WeatherDisplay:10.37,2014-02-13 20:52:00,
2014-02-13 15:57:00,26.9,24.9,29.54,West,271,2.3,2.3,92,0.00,CLR,,0.00,WeatherDisplay:10.37,2014-02-13 20:57:00,
2014-02-13 16:02:00,26.9,24.9,29.54,West,265,2.3,2.3,92,0.00,CLR,,0.00,WeatherDisplay:10.37,2014-02-13 21:02:00,
2014-02-13 16:07:00,27.0,25.2,29.54,West,265,2.3,2.3,93,0.00,CLR,,0.00,WeatherDisplay:10.37,2014-02-13 21:07:00,
2014-02-13 16:12:00,27.1,25.3,29.53,West,265,1.1,0.0,93,0.00,CLR,,0.00,WeatherDisplay:10.37,2014-02-13 21:12:00,
2014-02-13 16:17:00,27.1,25.3,29.53,West,265,0.0,0.0,93,0.00,CLR,,0.00,WeatherDisplay:10.37,2014-02-13 21:17:00,
2014-02-13 16:22:00,27.2,25.4,29.53,West,265,0.0,0.0,93,0.00,CLR,,0.00,WeatherDisplay:10.37,2014-02-13 21:22:00,
2014-02-13 16:27:00,27.2,25.4,29.53,West,265,0.0,0.0,93,0.00,CLR,,0.00,WeatherDisplay:10.37,2014-02-13 21:27:00,
2014-02-13 16:32:00,27.4,25.6,29.52,West,267,0.0,0.0,93,0.00,CLR,,0.00,WeatherDisplay:10.37,2014-02-13 21:32:00,
2014-02-13 16:37:00,27.5,25.7,29.52,West,267,0.0,0.0,93,0.00,CLR,,0.00,WeatherDisplay:10.37,2014-02-13 21:37:00,
2014-02-13 16:42:00,27.6,25.8,29.52,West,267,0.0,0.0,93,0.00,CLR,,0.00,WeatherDisplay:10.37,2014-02-13 21:42:00,
2014-02-13 16:47:00,27.8,26.3,29.52,West,267,1.1,1.1,94,0.00,CLR,,0.00,WeatherDisplay:10.37,2014-02-13 21:47:00,
2014-02-13 16:52:00,28.0,26.5,29.52,West,267,2.0,2.0,94,0.00,CLR,,0.00,WeatherDisplay:10.37,2014-02-13 21:52:00,
2014-02-13 16:57:00,28.2,26.7,29.52,SW,232,2.3,2.3,94,0.00,CLR,,0.00,WeatherDisplay:10.37,2014-02-13 21:57:00,
2014-02-13 17:02:00,28.7,27.2,29.52,WSW,252,2.3,2.3,94,0.00,CLR,,0.00,WeatherDisplay:10.37,2014-02-13 22:02:00,
2014-02-13 17:07:00,29.2,27.9,29.52,West,264,2.3,2.3,95,0.00,CLR,,0.00,WeatherDisplay:10.37,2014-02-13 22:07:00,
2014-02-13 17:12:00,29.7,28.4,29.51,West,259,3.0,3.0,95,0.00,CLR,,0.00,WeatherDisplay:10.37,2014-02-13 22:12:00,
2014-02-13 17:17:00,30.1,28.8,29.51,West,274,5.8,5.8,95,0.00,CLR,,0.00,WeatherDisplay:10.37,2014-02-13 22:17:00,
2014-02-13 17:22:00,30.5,29.2,29.51,West,268,4.6,4.6,95,0.00,CLR,,0.00,WeatherDisplay:10.37,2014-02-13 22:22:00,
2014-02-13 17:27:00,30.7,29.4,29.51,SW,233,3.5,3.5,95,0.00,CLR,,0.00,WeatherDisplay:10.37,2014-02-13 22:27:00,
2014-02-13 17:32:00,31.0,29.7,29.51,WSW,248,4.0,4.0,95,0.00,CLR,,0.00,WeatherDisplay:10.37,2014-02-13 22:32:00,
2014-02-13 17:37:00,31.2,29.9,29.50,WSW,252,3.5,3.5,95,0.00,CLR,,0.00,WeatherDisplay:10.37,2014-02-13 22:37:00,
2014-02-13 17:42:00,31.4,29.9,29.50,WSW,248,3.5,3.5,94,0.00,CLR,,0.00,WeatherDisplay:10.37,2014-02-13 22:42:00,
2014-02-13 17:47:00,31.6,30.1,29.50,SW,223,4.0,4.0,94,0.00,CLR,,0.00,WeatherDisplay:10.37,2014-02-13 22:47:00,
2014-02-13 17:52:00,31.8,30.3,29.50,West,261,3.5,3.5,94,0.00,CLR,,0.00,WeatherDisplay:10.37,2014-02-13 22:52:00,
2014-02-13 17:57:00,32.1,30.6,29.50,WSW,245,7.0,7.0,94,0.00,CLR,,0.00,WeatherDisplay:10.37,2014-02-13 22:57:00,
2014-02-13 18:02:00,32.2,30.7,29.50,West,263,4.0,4.0,94,0.00,CLR,,0.00,WeatherDisplay:10.37,2014-02-13 23:02:00,
2014-02-13 18:07:00,32.3,30.8,29.50,West,271,3.5,3.5,94,0.00,CLR,,0.00,WeatherDisplay:10.37,2014-02-13 23:07:00,
2014-02-13 18:12:00,32.4,30.9,29.50,West,264,3.5,3.5,94,0.00,CLR,,0.00,WeatherDisplay:10.37,2014-02-13 23:12:00,
2014-02-13 18:17:00,32.5,31.0,29.50,West,265,3.5,3.5,94,0.00,CLR,,0.00,WeatherDisplay:10.37,2014-02-13 23:17:00,
2014-02-13 18:22:00,32.5,31.0,29.50,West,267,4.0,4.0,94,0.00,CLR,,0.00,WeatherDisplay:10.37,2014-02-13 23:22:00,
2014-02-13 18:27:00,32.6,31.1,29.50,West,262,5.8,5.8,94,0.00,CLR,,0.00,WeatherDisplay:10.37,2014-02-13 23:27:00,
2014-02-13 18:32:00,32.7,31.2,29.50,West,275,4.6,4.9,94,0.00,CLR,,0.00,WeatherDisplay:10.37,2014-02-13 23:32:00,
2014-02-13 18:37:00,32.8,31.3,29.50,WNW,284,5.8,5.8,94,0.00,CLR,,0.00,WeatherDisplay:10.37,2014-02-13 23:37:00,
2014-02-13 18:42:00,33.2,31.4,29.50,West,277,4.6,4.6,93,0.00,CLR,,0.00,WeatherDisplay:10.37,2014-02-13 23:42:00,
2014-02-13 18:47:00,33.6,31.3,29.50,West,261,4.6,4.6,91,0.00,CLR,,0.00,WeatherDisplay:10.37,2014-02-13 23:47:00,
2014-02-13 18:52:00,33.7,30.8,29.50,West,277,3.5,3.5,89,0.00,CLR,,0.00,WeatherDisplay:10.37,2014-02-13 23:52:00,
2014-02-13 18:57:00,33.8,30.9,29.50,West,273,4.0,4.0,89,0.00,CLR,,0.00,WeatherDisplay:10.37,2014-02-13 23:57:00,
2014-02-13 19:02:00,33.9,31.0,29.50,West,269,3.5,3.5,89,0.00,CLR,,0.00,WeatherDisplay:10.37,2014-02-14 00:02:00,
2014-02-13 19:07:00,33.9,30.7,29.51,West,265,3.5,3.5,88,0.00,CLR,,0.00,WeatherDisplay:10.37,2014-02-14 00:07:00,
2014-02-13 19:12:00,33.9,30.7,29.51,WSW,238,3.5,3.5,88,0.00,CLR,,0.00,WeatherDisplay:10.37,2014-02-14 00:12:00,
2014-02-13 19:17:00,33.9,30.4,29.50,West,275,2.3,2.3,87,0.00,CLR,,0.00,WeatherDisplay:10.37,2014-02-14 00:17:00,
2014-02-13 19:22:00,33.8,30.3,29.51,West,262,3.5,3.5,87,0.00,CLR,,0.00,WeatherDisplay:10.37,2014-02-14 00:22:00,
2014-02-13 19:27:00,33.8,30.3,29.51,West,267,3.5,3.5,87,0.00,CLR,,0.00,WeatherDisplay:10.37,2014-02-14 00:27:00,
2014-02-13 19:32:00,33.9,30.4,29.51,West,267,3.5,3.5,87,0.00,CLR,,0.00,WeatherDisplay:10.37,2014-02-14 00:32:00,
2014-02-13 19:37:00,34.0,30.0,29.51,West,269,5.0,5.0,85,0.00,CLR,,0.00,WeatherDisplay:10.37,2014-02-14 00:37:00,
2014-02-13 19:42:00,34.5,29.6,29.52,West,269,5.8,5.8,82,0.00,CLR,,0.00,WeatherDisplay:10.37,2014-02-14 00:42:00,
2014-02-13 19:47:00,35.3,29.7,29.52,West,280,6.0,6.0,80,0.00,CLR,,0.00,WeatherDisplay:10.37,2014-02-14 00:47:00,
2014-02-13 19:52:00,35.7,29.8,29.52,WSW,252,3.5,3.5,79,0.00,CLR,,0.00,WeatherDisplay:10.37,2014-02-14 00:52:00,
2014-02-13 19:57:00,35.5,29.9,29.53,West,259,3.5,3.5,80,0.00,CLR,,0.00,WeatherDisplay:10.37,2014-02-14 00:57:00,
2014-02-13 20:02:00,35.3,29.7,29.53,West,269,3.5,3.5,80,0.00,CLR,,0.00,WeatherDisplay:10.37,2014-02-14 01:02:00,
2014-02-13 20:07:00,35.2,29.3,29.53,WNW,283,3.5,3.5,79,0.00,CLR,,0.00,WeatherDisplay:10.37,2014-02-14 01:07:00,
2014-02-13 20:12:00,35.1,29.2,29.53,West,274,4.6,4.6,79,0.00,CLR,,0.00,WeatherDisplay:10.37,2014-02-14 01:12:00,
2014-02-13 20:17:00,35.3,29.1,29.54,WNW,282,4.6,4.6,78,0.00,CLR,,0.00,WeatherDisplay:10.37,2014-02-14 01:17:00,
2014-02-13 20:22:00,35.4,29.2,29.54,WNW,282,0.0,0.0,78,0.00,CLR,,0.00,WeatherDisplay:10.37,2014-02-14 01:22:00,
2014-02-13 20:27:00,35.3,29.4,29.54,WNW,282,1.1,0.0,79,0.00,CLR,,0.00,WeatherDisplay:10.37,2014-02-14 01:27:00,
2014-02-13 20:32:00,35.1,29.2,29.54,WNW,282,0.0,0.0,79,0.00,CLR,,0.00,WeatherDisplay:10.37,2014-02-14 01:32:00,
2014-02-13 20:37:00,35.0,29.1,29.55,WNW,282,0.0,0.0,79,0.00,CLR,,0.00,WeatherDisplay:10.37,2014-02-14 01:37:00,
2014-02-13 20:42:00,34.6,28.8,29.55,North,9,1.1,1.1,79,0.00,CLR,,0.00,WeatherDisplay:10.37,2014-02-14 01:42:00,
2014-02-13 20:47:00,34.4,28.9,29.54,North,9,0.0,0.0,80,0.00,CLR,,0.00,WeatherDisplay:10.37,2014-02-14 01:47:00,
2014-02-13 20:52:00,34.2,28.4,29.55,WSW,250,3.0,3.0,79,0.00,CLR,,0.00,WeatherDisplay:10.37,2014-02-14 01:52:00,
2014-02-13 20:57:00,34.4,28.2,29.55,NNW,337,6.0,6.0,78,0.00,CLR,,0.00,WeatherDisplay:10.37,2014-02-14 01:57:00,
2014-02-13 21:02:00,34.8,28.3,29.54,West,277,4.6,4.6,77,0.00,CLR,,0.00,WeatherDisplay:10.37,2014-02-14 02:02:00,
2014-02-13 21:07:00,35.0,28.2,29.54,West,266,3.5,3.5,76,0.00,CLR,,0.00,WeatherDisplay:10.37,2014-02-14 02:07:00,
2014-02-13 21:12:00,35.0,28.2,29.54,WNW,287,7.0,7.0,76,0.00,CLR,,0.00,WeatherDisplay:10.37,2014-02-14 02:12:00,
2014-02-13 21:17:00,34.9,28.1,29.53,WNW,303,4.0,4.0,76,0.00,CLR,,0.00,WeatherDisplay:10.37,2014-02-14 02:17:00,
2014-02-13 21:22:00,34.9,27.5,29.53,West,274,8.1,8.1,74,0.00,CLR,,0.00,WeatherDisplay:10.37,2014-02-14 02:22:00,
2014-02-13 21:27:00,35.3,27.2,29.53,West,273,12.7,12.7,72,0.00,CLR,,0.00,WeatherDisplay:10.37,2014-02-14 02:27:00,
2014-02-13 21:32:00,35.5,27.0,29.53,West,264,11.5,11.5,71,0.00,CLR,,0.00,WeatherDisplay:10.37,2014-02-14 02:32:00,
2014-02-13 21:37:00,35.5,26.7,29.54,West,268,9.2,9.2,70,0.00,CLR,,0.00,WeatherDisplay:10.37,2014-02-14 02:37:00,
2014-02-13 21:42:00,35.5,26.3,29.54,WNW,282,10.0,10.0,69,0.00,CLR,,0.00,WeatherDisplay:10.37,2014-02-14 02:42:00,
2014-02-13 21:47:00,35.4,25.9,29.54,West,273,10.4,10.4,68,0.00,CLR,,0.00,WeatherDisplay:10.37,2014-02-14 02:47:00,
2014-02-13 21:52:00,35.4,25.5,29.54,WSW,255,11.5,11.5,67,0.00,CLR,,0.00,WeatherDisplay:10.37,2014-02-14 02:52:00,
2014-02-13 21:57:00,35.4,25.5,29.54,West,277,10.4,10.4,67,0.00,CLR,,0.00,WeatherDisplay:10.37,2014-02-14 02:57:00,
2014-02-13 22:02:00,35.2,25.3,29.55,West,279,7.0,7.0,67,0.00,CLR,,0.00,WeatherDisplay:10.37,2014-02-14 03:02:00,
2014-02-13 22:07:00,35.0,25.1,29.55,West,266,6.9,6.9,67,0.00,CLR,,0.00,WeatherDisplay:10.37,2014-02-14 03:07:00,
2014-02-13 22:12:00,34.8,25.0,29.55,West,275,7.0,7.0,67,0.00,CLR,,0.00,WeatherDisplay:10.37,2014-02-14 03:12:00,
2014-02-13 22:17:00,34.6,24.4,29.56,West,267,9.2,9.2,66,0.00,CLR,,0.00,WeatherDisplay:10.37,2014-02-14 03:17:00,
2014-02-13 22:22:00,34.4,24.2,29.56,West,264,4.6,4.6,66,0.00,CLR,,0.00,WeatherDisplay:10.37,2014-02-14 03:22:00,
2014-02-13 22:27:00,34.2,23.7,29.56,West,266,5.0,5.0,65,0.00,CLR,,0.00,WeatherDisplay:10.37,2014-02-14 03:27:00,
2014-02-13 22:32:00,34.0,23.1,29.56,WSW,241,5.8,5.8,64,0.00,CLR,,0.00,WeatherDisplay:10.37,2014-02-14 03:32:00,
2014-02-13 22:37:00,34.0,23.1,29.57,West,259,4.0,4.0,64,0.00,CLR,,0.00,WeatherDisplay:10.37,2014-02-14 03:37:00,
2014-02-13 22:42:00,33.8,22.9,29.57,West,275,5.8,5.8,64,0.00,CLR,,0.00,WeatherDisplay:10.37,2014-02-14 03:42:00,
2014-02-13 22:47:00,33.7,22.4,29.57,West,273,6.9,6.9,63,0.00,CLR,,0.00,WeatherDisplay:10.37,2014-02-14 03:47:00,
2014-02-13 22:52:00,33.6,22.7,29.57,WSW,246,4.6,4.6,64,0.00,CLR,,0.00,WeatherDisplay:10.37,2014-02-14 03:52:00,
2014-02-13 22:57:00,33.4,22.9,29.56,West,260,5.0,5.0,65,0.00,CLR,,0.00,WeatherDisplay:10.37,2014-02-14 03:57:00,
2014-02-13 23:02:00,33.4,22.5,29.56,West,271,6.9,6.9,64,0.00,CLR,,0.00,WeatherDisplay:10.37,2014-02-14 04:02:00,
2014-02-13 23:07:00,33.4,22.5,29.56,SW,236,16.1,16.1,64,0.00,CLR,,0.00,WeatherDisplay:10.37,2014-02-14 04:07:00,
2014-02-13 23:12:00,33.4,22.5,29.57,WSW,239,9.2,9.2,64,0.00,CLR,,0.00,WeatherDisplay:10.37,2014-02-14 04:12:00,
2014-02-13 23:17:00,33.4,22.5,29.57,SW,231,9.2,9.2,64,0.00,CLR,,0.00,WeatherDisplay:10.37,2014-02-14 04:17:00,
2014-02-13 23:22:00,33.2,22.7,29.58,WSW,238,5.8,5.8,65,0.00,CLR,,0.00,WeatherDisplay:10.37,2014-02-14 04:22:00,
2014-02-13 23:27:00,33.2,23.1,29.58,SW,236,4.0,4.0,66,0.00,CLR,,0.00,WeatherDisplay:10.37,2014-02-14 04:27:00,
2014-02-13 23:32:00,32.9,22.8,29.58,SW,225,3.5,3.5,66,0.00,CLR,,0.00,WeatherDisplay:10.37,2014-02-14 04:32:00,
2014-02-13 23:37:00,32.7,22.6,29.59,WSW,246,6.9,6.9,66,0.00,CLR,,0.00,WeatherDisplay:10.37,2014-02-14 04:37:00,
2014-02-13 23:42:00,32.6,22.8,29.59,SW,221,4.6,4.6,67,0.00,CLR,,0.00,WeatherDisplay:10.37,2014-02-14 04:42:00,
2014-02-13 23:47:00,32.5,22.8,29.58,SW,215,3.5,3.5,67,0.00,CLR,,0.00,WeatherDisplay:10.37,2014-02-14 04:47:00,
2014-02-13 23:52:00,32.4,22.7,29.58,SW,236,3.5,3.5,67,0.00,CLR,,0.00,WeatherDisplay:10.37,2014-02-14 04:52:00,
2014-02-13 23:57:00,32.2,22.8,29.58,SW,233,3.5,3.5,68,0.00,CLR,,0.00,WeatherDisplay:10.37,2014-02-14 04:57:00,